createdAt,value
2023-05-20T00:00:56.835Z,4.60
2023-05-20T00:03:24.527Z,4.93
2023-05-20T00:05:51.686Z,4.88
2023-05-20T00:08:19.627Z,4.85
2023-05-20T00:10:46.657Z,4.80
2023-05-20T00:13:14.087Z,4.82
2023-05-20T00:15:41.192Z,4.90
2023-05-20T00:18:08.612Z,5.07
2023-05-20T00:20:36.064Z,4.85
2023-05-20T00:23:03.329Z,4.82
2023-05-20T00:25:31.920Z,4.60
2023-05-20T00:27:59.392Z,5.40
2023-05-20T00:30:26.678Z,4.90
2023-05-20T00:32:53.951Z,4.28
2023-05-20T00:35:21.370Z,4.60
2023-05-20T00:37:48.698Z,4.30
2023-05-20T00:40:16.360Z,4.73
2023-05-20T00:42:44.022Z,4.40
2023-05-20T00:45:11.411Z,4.63
2023-05-20T00:47:40.117Z,4.30
2023-05-20T00:50:08.579Z,4.50
2023-05-20T00:52:37.308Z,3.93
2023-05-20T00:55:04.451Z,4.03
2023-05-20T00:57:32.082Z,4.40
2023-05-20T00:59:59.870Z,4.47
2023-05-20T01:02:27.529Z,4.25
2023-05-20T01:04:56.978Z,4.20
2023-05-20T01:07:25.706Z,4.10
2023-05-20T01:09:54.526Z,3.90
2023-05-20T01:12:51.384Z,3.97
2023-05-20T01:15:19.502Z,3.75
2023-05-20T01:17:48.819Z,3.93
2023-05-20T01:20:16.188Z,3.58
2023-05-20T01:22:54.150Z,4.10
2023-05-20T01:25:21.781Z,3.80
2023-05-20T01:27:50.104Z,3.55
2023-05-20T01:30:17.714Z,4.20
2023-05-20T01:32:55.326Z,4.05
2023-05-20T01:35:23.309Z,3.78
2023-05-20T01:37:53.099Z,4.28
2023-05-20T01:40:21.477Z,3.58
2023-05-20T01:42:53.312Z,4.20
2023-05-20T01:45:20.972Z,4.40
2023-05-20T01:47:48.762Z,4.13
2023-05-20T01:50:16.846Z,4.15
2023-05-20T01:52:44.179Z,4.00
2023-05-20T01:55:11.186Z,4.10
2023-05-20T01:57:38.924Z,4.32
2023-05-20T02:00:07.052Z,4.70
2023-05-20T02:02:40.799Z,4.30
2023-05-20T02:05:10.850Z,4.53
2023-05-20T02:07:38.144Z,4.07
2023-05-20T02:10:06.351Z,4.30
2023-05-20T02:12:33.737Z,4.93
2023-05-20T02:15:01.030Z,4.10
2023-05-20T02:17:29.453Z,4.70
2023-05-20T02:19:57.671Z,4.30
2023-05-20T02:22:24.937Z,4.75
2023-05-20T02:24:51.854Z,4.72
2023-05-20T02:27:19.123Z,5.32
2023-05-20T02:29:46.130Z,4.45
2023-05-20T02:32:13.982Z,4.10
2023-05-20T02:34:41.026Z,5.15
2023-05-20T02:37:08.787Z,4.90
2023-05-20T02:39:35.832Z,4.82
2023-05-20T02:42:04.833Z,4.85
2023-05-20T02:44:31.936Z,5.17
2023-05-20T02:46:59.206Z,5.45
2023-05-20T02:49:26.468Z,5.30
2023-05-20T02:51:54.241Z,4.50
2023-05-20T02:54:21.582Z,5.70
2023-05-20T02:56:48.892Z,4.80
2023-05-20T02:59:16.285Z,4.88
2023-05-20T03:01:44.220Z,5.13
2023-05-20T03:04:11.812Z,4.80
2023-05-20T03:06:39.229Z,5.75
2023-05-20T03:09:06.219Z,5.03
2023-05-20T03:11:34.738Z,5.35
2023-05-20T03:14:01.739Z,5.80
2023-05-20T03:16:29.248Z,5.53
2023-05-20T03:18:58.070Z,5.47
2023-05-20T03:21:25.479Z,5.33
2023-05-20T03:23:52.599Z,5.40
2023-05-20T03:26:19.916Z,5.68
2023-05-20T03:28:46.969Z,5.63
2023-05-20T03:31:14.582Z,6.00
2023-05-20T03:33:41.705Z,6.00
2023-05-20T03:36:09.392Z,5.70
2023-05-20T03:38:36.428Z,5.82
2023-05-20T03:41:03.709Z,6.13
2023-05-20T03:43:30.771Z,5.78
2023-05-20T03:45:59.002Z,6.23
2023-05-20T03:48:26.186Z,5.50
2023-05-20T03:50:54.189Z,6.03
2023-05-20T03:53:21.452Z,5.63
2023-05-20T03:55:48.766Z,7.10
2023-05-20T03:58:16.102Z,7.03
2023-05-20T04:00:43.588Z,6.50
2023-05-20T04:03:10.925Z,5.85
2023-05-20T04:05:38.628Z,6.53
2023-05-20T04:08:13.856Z,6.18
2023-05-20T04:10:43.083Z,6.57
2023-05-20T04:13:12.218Z,5.97
2023-05-20T04:15:41.678Z,6.80
2023-05-20T04:18:09.415Z,6.30
2023-05-20T04:20:36.816Z,6.40
2023-05-20T04:23:03.940Z,6.07
2023-05-20T04:25:31.598Z,5.95
2023-05-20T04:28:00.324Z,5.55
2023-05-20T04:30:27.595Z,5.70
2023-05-20T04:32:54.767Z,5.65
2023-05-20T04:35:26.417Z,6.33
2023-05-20T04:37:56.250Z,5.90
2023-05-20T04:40:24.026Z,5.70
2023-05-20T04:42:51.526Z,5.75
2023-05-20T04:45:19.585Z,6.50
2023-05-20T04:47:46.780Z,5.93
2023-05-20T04:50:15.011Z,5.35
2023-05-20T04:52:43.419Z,6.03
2023-05-20T04:55:12.826Z,5.93
2023-05-20T04:57:43.172Z,5.50
2023-05-20T05:00:12.801Z,6.47
2023-05-20T05:02:40.783Z,6.38
2023-05-20T05:05:09.098Z,6.35
2023-05-20T05:07:36.451Z,6.10
2023-05-20T05:10:04.645Z,6.38
2023-05-20T05:12:33.263Z,7.33
2023-05-20T05:15:00.813Z,7.13
2023-05-20T05:17:29.306Z,8.05
2023-05-20T05:19:58.320Z,7.85
2023-05-20T05:22:27.349Z,7.22
2023-05-20T05:24:56.210Z,6.10
2023-05-20T05:27:23.491Z,7.18
2023-05-20T05:29:51.120Z,6.88
2023-05-20T05:32:19.296Z,6.60
2023-05-20T05:34:46.959Z,6.88
2023-05-20T05:37:14.116Z,7.80
2023-05-20T05:39:42.624Z,7.00
2023-05-20T05:42:10.022Z,7.15
2023-05-20T05:44:37.502Z,6.82
2023-05-20T05:47:07.131Z,8.05
2023-05-20T05:49:35.234Z,7.50
2023-05-20T05:52:03.390Z,6.90
2023-05-20T05:54:30.855Z,7.10
2023-05-20T05:56:58.120Z,7.60
2023-05-20T05:59:27.999Z,7.30
2023-05-20T06:01:55.165Z,7.03
2023-05-20T06:04:22.702Z,6.70
2023-05-20T06:06:53.173Z,6.63
2023-05-20T06:09:20.895Z,6.82
2023-05-20T06:11:48.093Z,7.25
2023-05-20T06:14:15.489Z,7.40
2023-05-20T06:16:42.700Z,7.10
2023-05-20T06:19:10.225Z,7.20
2023-05-20T06:21:37.400Z,7.22
2023-05-20T06:24:05.892Z,7.45
2023-05-20T06:26:35.424Z,6.93
2023-05-20T06:29:03.968Z,7.55
2023-05-20T06:31:31.136Z,7.60
2023-05-20T06:33:58.870Z,7.20
2023-05-20T06:36:27.678Z,6.78
2023-05-20T06:38:55.345Z,6.97
2023-05-20T06:41:22.660Z,7.18
2023-05-20T06:43:53.483Z,7.88
2023-05-20T06:46:38.174Z,7.30
2023-05-20T06:49:07.800Z,8.50
2023-05-20T06:51:35.317Z,7.97
2023-05-20T06:54:03.815Z,8.50
2023-05-20T06:56:31.192Z,7.75
2023-05-20T06:58:59.659Z,8.00
2023-05-20T07:01:27.495Z,7.82
2023-05-20T07:03:56.166Z,7.72
2023-05-20T07:06:24.314Z,8.97
2023-05-20T07:08:52.188Z,8.60
2023-05-20T07:11:19.677Z,8.20
2023-05-20T07:13:47.406Z,9.68
2023-05-20T07:16:14.818Z,9.45
2023-05-20T07:18:47.448Z,8.33
2023-05-20T07:21:14.625Z,8.13
2023-05-20T07:24:01.226Z,8.65
2023-05-20T07:26:28.696Z,8.25
2023-05-20T07:28:56.200Z,8.10
2023-05-20T07:31:24.474Z,8.17
2023-05-20T07:33:52.100Z,9.35
2023-05-20T07:36:19.549Z,8.30
2023-05-20T07:39:01.849Z,6.97
2023-05-20T07:41:34.046Z,8.07
2023-05-20T07:44:05.313Z,7.83
2023-05-20T07:46:34.824Z,8.10
2023-05-20T07:49:02.337Z,7.85
2023-05-20T07:51:29.442Z,7.47
2023-05-20T07:53:57.051Z,8.00
2023-05-20T07:56:24.326Z,8.23
2023-05-20T07:58:59.742Z,7.40
2023-05-20T08:01:31.097Z,7.32
2023-05-20T08:03:59.241Z,7.82
2023-05-20T08:06:28.717Z,7.38
2023-05-20T08:08:57.299Z,7.37
2023-05-20T08:11:30.125Z,7.70
2023-05-20T08:13:58.187Z,7.72
2023-05-20T08:16:28.041Z,7.07
2023-05-20T08:18:56.271Z,8.65
2023-05-20T08:21:23.757Z,8.27
2023-05-20T08:23:51.401Z,7.40
2023-05-20T08:26:18.506Z,8.25
2023-05-20T08:28:47.020Z,7.80
2023-05-20T08:31:15.821Z,7.68
2023-05-20T08:33:43.453Z,7.30
2023-05-20T08:36:10.664Z,7.40
2023-05-20T08:38:38.097Z,7.47
2023-05-20T08:41:05.353Z,7.00
2023-05-20T08:43:33.775Z,6.75
2023-05-20T08:46:05.353Z,6.73
2023-05-20T08:48:35.933Z,6.30
2023-05-20T08:51:03.909Z,6.32
2023-05-20T08:53:31.592Z,6.93
2023-05-20T08:56:03.381Z,5.60
2023-05-20T08:58:32.229Z,6.30
2023-05-20T09:00:59.420Z,6.25
2023-05-20T09:03:27.271Z,6.20
2023-05-20T09:06:03.427Z,5.82
2023-05-20T09:08:31.777Z,5.90
2023-05-20T09:10:58.887Z,6.77
2023-05-20T09:13:28.361Z,6.32
2023-05-20T09:15:55.537Z,6.03
2023-05-20T09:18:23.096Z,7.78
2023-05-20T09:20:53.180Z,6.93
2023-05-20T09:23:25.336Z,6.80
2023-05-20T09:25:53.226Z,6.78
2023-05-20T09:28:25.529Z,6.15
2023-05-20T09:30:58.296Z,5.95
2023-05-20T09:33:30.445Z,6.80
2023-05-20T09:36:05.486Z,5.90
2023-05-20T09:38:39.323Z,7.25
2023-05-20T09:41:10.684Z,7.00
2023-05-20T09:43:40.485Z,6.18
2023-05-20T09:46:08.952Z,6.18
2023-05-20T09:48:40.034Z,6.10
2023-05-20T09:51:08.279Z,5.78
2023-05-20T09:53:36.322Z,6.22
2023-05-20T09:56:03.912Z,6.43
2023-05-20T09:58:32.516Z,6.25
2023-05-20T10:00:59.958Z,7.03
2023-05-20T10:03:29.544Z,7.18
2023-05-20T10:06:17.680Z,7.43
2023-05-20T10:09:29.129Z,7.20
2023-05-20T10:12:20.851Z,6.80
2023-05-20T10:14:59.266Z,7.10
2023-05-20T10:17:40.384Z,6.15
2023-05-20T10:20:15.155Z,7.10
2023-05-20T10:22:42.558Z,6.80
2023-05-20T10:25:13.425Z,6.55
2023-05-20T10:27:47.718Z,7.03
2023-05-20T10:30:20.083Z,6.53
2023-05-20T10:33:00.836Z,6.88
2023-05-20T10:35:29.040Z,6.78
2023-05-20T10:38:08.061Z,6.47
2023-05-20T10:40:35.829Z,5.67
2023-05-20T10:43:28.478Z,7.00
2023-05-20T10:45:57.966Z,6.88
2023-05-20T10:48:29.044Z,6.97
2023-05-20T10:51:04.664Z,7.30
2023-05-20T10:53:46.124Z,6.60
2023-05-20T10:56:21.810Z,7.45
2023-05-20T10:58:49.224Z,6.70
2023-05-20T11:01:17.312Z,6.65
2023-05-20T11:03:45.532Z,7.15
2023-05-20T11:06:16.039Z,7.13
2023-05-20T11:08:47.763Z,7.00
2023-05-20T11:11:15.945Z,7.60
2023-05-20T11:13:43.129Z,8.57
2023-05-20T11:16:10.741Z,7.43
2023-05-20T11:18:37.888Z,7.40
2023-05-20T11:21:05.262Z,6.90
2023-05-20T11:23:32.464Z,7.47
2023-05-20T11:25:59.930Z,7.38
2023-05-20T11:28:27.077Z,7.00
2023-05-20T11:30:56.234Z,6.70
2023-05-20T11:33:26.884Z,7.60
2023-05-20T11:35:54.879Z,7.63
2023-05-20T11:38:22.286Z,8.20
2023-05-20T11:40:54.608Z,7.03
2023-05-20T11:43:23.766Z,8.20
2023-05-20T11:46:01.823Z,7.40
2023-05-20T11:48:29.166Z,7.13
2023-05-20T11:50:58.464Z,7.13
2023-05-20T11:53:27.063Z,7.80
2023-05-20T11:55:59.668Z,7.17
2023-05-20T11:58:28.263Z,6.85
2023-05-20T12:01:02.385Z,7.40
2023-05-20T12:03:40.947Z,7.32
2023-05-20T12:06:11.903Z,7.57
2023-05-20T12:08:39.356Z,7.73
2023-05-20T12:11:06.864Z,7.38
2023-05-20T12:13:35.448Z,7.47
2023-05-20T12:16:03.129Z,7.33
2023-05-20T12:18:30.223Z,8.50
2023-05-20T12:20:57.739Z,8.87
2023-05-20T12:23:24.984Z,7.90
2023-05-20T12:25:52.466Z,7.93
2023-05-20T12:28:19.832Z,8.20
2023-05-20T12:30:47.141Z,8.13
2023-05-20T12:33:14.164Z,8.53
2023-05-20T12:35:43.539Z,8.27
2023-05-20T12:38:10.797Z,7.47
2023-05-20T12:40:38.754Z,7.20
2023-05-20T12:43:06.301Z,8.00
2023-05-20T12:45:33.941Z,8.00
2023-05-20T12:48:01.160Z,7.65
2023-05-20T12:50:28.734Z,7.97
2023-05-20T12:52:56.296Z,7.57
2023-05-20T12:55:23.836Z,6.50
2023-05-20T12:57:50.894Z,7.13
2023-05-20T13:00:18.557Z,7.15
2023-05-20T13:02:45.756Z,8.13
2023-05-20T13:05:13.864Z,8.63
2023-05-20T13:07:40.968Z,7.07
2023-05-20T13:10:08.989Z,8.00
2023-05-20T13:12:36.454Z,7.97
2023-05-20T13:15:04.928Z,7.22
2023-05-20T13:17:32.237Z,7.30
2023-05-20T13:19:59.755Z,7.70
2023-05-20T13:22:26.890Z,6.93
2023-05-20T13:24:54.748Z,7.10
2023-05-20T13:27:21.824Z,6.95
2023-05-20T13:29:49.367Z,7.65
2023-05-20T13:32:16.677Z,6.70
2023-05-20T13:34:44.045Z,7.97
2023-05-20T13:37:11.041Z,7.57
2023-05-20T13:39:38.510Z,6.78
2023-05-20T13:42:05.679Z,6.38
2023-05-20T13:44:32.996Z,7.43
2023-05-20T13:47:00.437Z,7.60
2023-05-20T13:49:27.956Z,6.47
2023-05-20T13:51:55.006Z,8.82
2023-05-20T13:54:22.425Z,6.65
2023-05-20T13:56:49.958Z,6.80
2023-05-20T13:59:17.534Z,7.37
2023-05-20T14:01:45.766Z,7.40
2023-05-20T14:04:13.319Z,7.43
2023-05-20T14:06:40.813Z,7.60
2023-05-20T14:09:11.810Z,7.47
2023-05-20T14:11:38.958Z,8.57
2023-05-20T14:14:06.601Z,7.85
2023-05-20T14:16:33.811Z,8.57
2023-05-20T14:19:01.819Z,8.40
2023-05-20T14:21:33.698Z,7.45
2023-05-20T14:24:01.842Z,9.40
2023-05-20T14:26:28.896Z,8.43
2023-05-20T14:28:56.174Z,8.27
2023-05-20T14:31:23.195Z,7.57
2023-05-20T14:33:50.660Z,7.10
2023-05-20T14:36:17.816Z,6.70
2023-05-20T14:38:45.417Z,7.50
2023-05-20T14:41:13.265Z,6.53
2023-05-20T14:43:40.662Z,6.07
2023-05-20T14:46:07.853Z,6.57
2023-05-20T14:48:35.261Z,6.90
2023-05-20T14:51:02.295Z,7.45
2023-05-20T14:53:29.691Z,6.75
2023-05-20T14:55:56.648Z,6.72
2023-05-20T14:58:23.996Z,5.60
2023-05-20T15:00:51.021Z,7.20
2023-05-20T15:03:18.512Z,6.30
2023-05-20T15:05:46.052Z,5.90
2023-05-20T15:08:13.468Z,6.03
2023-05-20T15:10:40.762Z,5.75
2023-05-20T15:13:08.267Z,5.10
2023-05-20T15:15:35.346Z,5.65
2023-05-20T15:18:02.676Z,5.90
2023-05-20T15:20:29.688Z,5.40
2023-05-20T15:22:58.050Z,5.60
2023-05-20T15:25:26.213Z,5.80
2023-05-20T15:27:53.638Z,5.40
2023-05-20T15:30:22.912Z,6.03
2023-05-20T15:32:50.281Z,5.80
2023-05-20T15:35:17.435Z,5.55
2023-05-20T15:37:44.778Z,4.80
2023-05-20T15:40:12.203Z,5.72
2023-05-20T15:42:39.548Z,5.47
2023-05-20T15:45:07.476Z,5.40
2023-05-20T15:47:34.860Z,5.55
2023-05-20T15:50:05.390Z,5.53
2023-05-20T15:52:33.033Z,6.28
2023-05-20T15:55:00.479Z,5.82
2023-05-20T15:57:27.969Z,5.63
2023-05-20T15:59:55.810Z,5.82
2023-05-20T16:02:23.516Z,5.57
2023-05-20T16:04:50.981Z,5.10
2023-05-20T16:07:18.426Z,6.30
2023-05-20T16:09:45.760Z,6.38
2023-05-20T16:12:13.356Z,5.85
2023-05-20T16:14:40.830Z,5.63
2023-05-20T16:17:08.367Z,5.65
2023-05-20T16:19:35.624Z,6.07
2023-05-20T16:22:03.177Z,5.35
2023-05-20T16:24:30.308Z,5.90
2023-05-20T16:26:57.771Z,5.60
2023-05-20T16:29:24.833Z,6.13
2023-05-20T16:31:52.886Z,5.32
2023-05-20T16:34:20.331Z,4.80
2023-05-20T16:36:47.868Z,5.60
2023-05-20T16:39:15.756Z,4.60
2023-05-20T16:41:43.731Z,5.00
2023-05-20T16:44:11.242Z,4.95
2023-05-20T16:46:38.738Z,4.65
2023-05-20T16:49:06.110Z,5.80
2023-05-20T16:51:33.543Z,5.30
2023-05-20T16:54:00.827Z,5.32
2023-05-20T16:56:28.384Z,4.72
2023-05-20T16:58:55.680Z,5.70
2023-05-20T17:01:24.160Z,4.13
2023-05-20T17:03:51.376Z,4.60
2023-05-20T17:06:18.814Z,4.80
2023-05-20T17:08:45.848Z,4.55
2023-05-20T17:11:13.302Z,5.25
2023-05-20T17:13:41.857Z,4.75
2023-05-20T17:16:09.991Z,4.63
2023-05-20T17:18:37.453Z,4.28
2023-05-20T17:21:05.166Z,4.07
2023-05-20T17:23:32.261Z,4.85
2023-05-20T17:25:59.809Z,4.82
2023-05-20T17:28:26.862Z,4.83
2023-05-20T17:30:54.619Z,5.18
2023-05-20T17:33:21.907Z,3.85
2023-05-20T17:35:49.417Z,5.00
2023-05-20T17:38:16.664Z,4.32
2023-05-20T17:40:44.127Z,5.20
2023-05-20T17:43:11.223Z,4.55
2023-05-20T17:45:38.665Z,4.95
2023-05-20T17:48:08.842Z,4.97
2023-05-20T17:50:38.893Z,4.50
2023-05-20T17:53:06.310Z,5.03
2023-05-20T17:55:36.727Z,4.55
2023-05-20T17:58:04.386Z,4.25
2023-05-20T18:00:34.789Z,4.22
2023-05-20T18:03:02.044Z,4.50
2023-05-20T18:05:29.846Z,3.30
2023-05-20T18:07:57.627Z,3.78
2023-05-20T18:10:24.951Z,4.07
2023-05-20T18:12:51.965Z,4.00
2023-05-20T18:15:19.448Z,3.75
2023-05-20T18:17:46.662Z,3.07
2023-05-20T18:20:14.943Z,3.42
2023-05-20T18:22:45.462Z,3.50
2023-05-20T18:25:16.854Z,3.28
2023-05-20T18:27:44.013Z,3.40
2023-05-20T18:30:11.573Z,3.23
2023-05-20T18:32:39.286Z,3.25
2023-05-20T18:35:07.445Z,2.80
2023-05-20T18:37:35.020Z,3.60
2023-05-20T18:40:02.622Z,3.53
2023-05-20T18:42:29.698Z,3.50
2023-05-20T18:44:57.231Z,3.70
2023-05-20T18:47:24.523Z,3.65
2023-05-20T18:49:51.963Z,3.63
2023-05-20T18:52:19.048Z,3.42
2023-05-20T18:54:46.554Z,3.77
2023-05-20T18:57:13.661Z,3.67
2023-05-20T18:59:42.832Z,2.97
2023-05-20T19:02:09.896Z,3.85
2023-05-20T19:04:37.297Z,4.57
2023-05-20T19:07:04.735Z,4.60
2023-05-20T19:09:32.158Z,4.35
2023-05-20T19:11:59.367Z,5.03
2023-05-20T19:14:26.927Z,4.90
2023-05-20T19:16:54.481Z,5.65
2023-05-20T19:19:22.171Z,5.67
2023-05-20T19:21:49.568Z,5.13
2023-05-20T19:24:17.958Z,5.72
2023-05-20T19:26:45.805Z,4.78
2023-05-20T19:29:15.420Z,5.75
2023-05-20T19:31:43.399Z,7.40
2023-05-20T19:34:10.985Z,7.10
2023-05-20T19:36:40.032Z,6.95
2023-05-20T19:39:08.187Z,7.63
2023-05-20T19:41:35.603Z,7.40
2023-05-20T19:44:02.999Z,5.83
2023-05-20T19:46:30.264Z,5.32
2023-05-20T19:48:58.593Z,6.25
2023-05-20T19:51:25.909Z,5.40
2023-05-20T19:53:53.387Z,6.18
2023-05-20T19:56:22.082Z,6.30
2023-05-20T19:58:51.152Z,5.90
2023-05-20T20:01:18.969Z,5.07
2023-05-20T20:03:46.713Z,5.65
2023-05-20T20:06:13.960Z,5.70
2023-05-20T20:08:41.837Z,4.37
2023-05-20T20:11:09.516Z,4.53
2023-05-20T20:13:37.330Z,4.68
2023-05-20T20:16:04.890Z,4.43
2023-05-20T20:18:32.754Z,4.20
2023-05-20T20:21:06.156Z,3.80
2023-05-20T20:23:35.321Z,4.10
2023-05-20T20:26:03.252Z,4.93
2023-05-20T20:28:30.702Z,4.72
2023-05-20T20:30:57.823Z,5.05
2023-05-20T20:33:25.890Z,4.80
2023-05-20T20:35:55.386Z,4.40
2023-05-20T20:38:23.156Z,4.68
2023-05-20T20:40:52.697Z,4.50
2023-05-20T20:43:21.405Z,4.05
2023-05-20T20:45:53.339Z,4.40
2023-05-20T20:48:27.135Z,4.18
2023-05-20T20:50:54.825Z,3.90
2023-05-20T20:53:22.543Z,4.40
2023-05-20T20:55:51.664Z,4.15
2023-05-20T20:58:19.311Z,4.00
2023-05-20T21:00:48.937Z,4.03
2023-05-20T21:03:16.640Z,3.72
2023-05-20T21:05:44.691Z,3.63
2023-05-20T21:08:13.459Z,3.40
2023-05-20T21:10:40.545Z,4.10
2023-05-20T21:13:08.320Z,3.90
2023-05-20T21:15:35.782Z,4.93
2023-05-20T21:18:03.861Z,4.28
2023-05-20T21:20:31.194Z,4.10
2023-05-20T21:22:58.648Z,3.80
2023-05-20T21:25:26.253Z,4.68
2023-05-20T21:27:53.689Z,5.35
2023-05-20T21:30:20.897Z,5.38
2023-05-20T21:32:48.466Z,6.40
2023-05-20T21:35:15.623Z,6.73
2023-05-20T21:37:43.088Z,6.18
2023-05-20T21:40:10.658Z,6.80
2023-05-20T21:42:38.336Z,6.90
2023-05-20T21:45:06.206Z,6.72
2023-05-20T21:47:33.750Z,5.57
2023-05-20T21:50:01.136Z,5.63
2023-05-20T21:52:28.650Z,5.25
2023-05-20T21:54:56.292Z,4.90
2023-05-20T21:57:23.839Z,4.72
2023-05-20T21:59:51.161Z,4.63
2023-05-20T22:02:18.635Z,4.53
2023-05-20T22:04:45.756Z,4.38
2023-05-20T22:07:13.249Z,5.18
2023-05-20T22:09:40.876Z,5.40
2023-05-20T22:12:11.299Z,4.80
2023-05-20T22:14:38.513Z,5.20
2023-05-20T22:17:05.969Z,5.10
2023-05-20T22:19:33.563Z,4.78
2023-05-20T22:22:01.097Z,5.20
2023-05-20T22:24:28.219Z,4.67
2023-05-20T22:26:55.773Z,4.68
2023-05-20T22:29:22.948Z,4.88
2023-05-20T22:31:50.386Z,5.18
2023-05-20T22:34:17.554Z,5.43
2023-05-20T22:36:45.669Z,5.10
2023-05-20T22:39:13.472Z,6.05
2023-05-20T22:41:41.176Z,5.72
2023-05-20T22:44:08.389Z,5.55
2023-05-20T22:46:35.926Z,6.03
2023-05-20T22:49:03.543Z,5.53
2023-05-20T22:51:34.505Z,7.43
2023-05-20T22:54:01.670Z,21.90
2023-05-20T22:56:29.921Z,26.25
2023-05-20T22:58:57.051Z,36.60
2023-05-20T23:01:24.536Z,30.73
2023-05-20T23:03:53.917Z,24.60
2023-05-20T23:06:22.873Z,17.52
2023-05-20T23:08:49.990Z,14.60
2023-05-20T23:11:17.424Z,12.20
2023-05-20T23:13:44.451Z,13.83
2023-05-20T23:16:12.034Z,15.32
2023-05-20T23:18:39.105Z,12.38
2023-05-20T23:21:06.576Z,11.13
2023-05-20T23:23:33.654Z,9.70
2023-05-20T23:26:01.824Z,9.00
2023-05-20T23:28:28.888Z,8.80
2023-05-20T23:30:56.860Z,8.00
2023-05-20T23:33:25.670Z,8.25
2023-05-20T23:35:53.592Z,7.32
2023-05-20T23:38:20.924Z,7.13
2023-05-20T23:40:49.449Z,6.85
2023-05-20T23:43:16.818Z,7.10
2023-05-20T23:45:44.287Z,6.07
2023-05-20T23:48:13.593Z,6.57
2023-05-20T23:50:41.243Z,6.63
2023-05-20T23:53:08.326Z,6.20
2023-05-20T23:55:35.989Z,6.28
2023-05-20T23:58:03.474Z,5.93
